sensor_id;sensor_type;location;lat;lon;timestamp;pressure;altitude;pressure_sealevel;temperature;humidity
4858;BME280;58975;51.978;8.472;2023-07-31T00:04:43;99894.28;;;14.97;100.00
4858;BME280;58975;51.978;8.472;2023-07-31T00:09:39;99894.78;;;15.01;100.00
4858;BME280;58975;51.978;8.472;2023-07-31T00:14:36;99889.72;;;14.98;100.00
4858;BME280;58975;51.978;8.472;2023-07-31T00:19:33;99886.38;;;14.96;100.00
4858;BME280;58975;51.978;8.472;2023-07-31T00:24:30;99883.38;;;15.07;100.00
4858;BME280;58975;51.978;8.472;2023-07-31T00:29:26;99887.38;;;15.03;100.00
4858;BME280;58975;51.978;8.472;2023-07-31T00:34:22;99884.06;;;15.01;100.00
4858;BME280;58975;51.978;8.472;2023-07-31T00:39:19;99890.75;;;15.05;100.00
4858;BME280;58975;51.978;8.472;2023-07-31T00:44:15;99889.75;;;15.06;100.00
4858;BME280;58975;51.978;8.472;2023-07-31T00:49:12;99888.06;;;14.97;100.00
4858;BME280;58975;51.978;8.472;2023-07-31T00:54:09;99892.72;;;14.87;100.00
4858;BME280;58975;51.978;8.472;2023-07-31T00:59:05;99900.72;;;14.79;100.00
4858;BME280;58975;51.978;8.472;2023-07-31T01:04:02;99918.47;;;14.72;100.00
4858;BME280;58975;51.978;8.472;2023-07-31T01:10:08;99925.66;;;14.71;100.00
4858;BME280;58975;51.978;8.472;2023-07-31T01:14:36;99937.88;;;14.65;100.00
4858;BME280;58975;51.978;8.472;2023-07-31T01:19:32;99946.53;;;14.59;100.00
4858;BME280;58975;51.978;8.472;2023-07-31T01:29:47;99946.94;;;14.39;100.00
4858;BME280;58975;51.978;8.472;2023-07-31T01:34:45;99928.84;;;13.89;100.00
4858;BME280;58975;51.978;8.472;2023-07-31T01:39:43;99912.88;;;13.80;100.00
4858;BME280;58975;51.978;8.472;2023-07-31T01:44:39;99914.13;;;13.67;100.00
4858;BME280;58975;51.978;8.472;2023-07-31T01:49:36;99917.25;;;13.63;100.00
4858;BME280;58975;51.978;8.472;2023-07-31T01:54:32;99916.41;;;13.62;100.00
4858;BME280;58975;51.978;8.472;2023-07-31T01:59:29;99911.63;;;13.48;100.00
4858;BME280;58975;51.978;8.472;2023-07-31T02:04:26;99913.81;;;13.35;100.00
4858;BME280;58975;51.978;8.472;2023-07-31T02:09:22;99906.47;;;13.37;100.00
4858;BME280;58975;51.978;8.472;2023-07-31T02:14:19;99912.28;;;13.50;100.00
4858;BME280;58975;51.978;8.472;2023-07-31T02:19:15;99919.72;;;13.56;100.00
4858;BME280;58975;51.978;8.472;2023-07-31T02:24:12;99908.00;;;13.57;100.00
4858;BME280;58975;51.978;8.472;2023-07-31T02:29:08;99910.91;;;13.64;100.00
4858;BME280;58975;51.978;8.472;2023-07-31T02:34:05;99903.16;;;13.61;100.00
4858;BME280;58975;51.978;8.472;2023-07-31T02:39:01;99895.69;;;13.64;100.00
4858;BME280;58975;51.978;8.472;2023-07-31T02:43:58;99887.66;;;13.64;100.00
4858;BME280;58975;51.978;8.472;2023-07-31T02:48:54;99873.97;;;13.67;100.00
4858;BME280;58975;51.978;8.472;2023-07-31T02:53:51;99874.03;;;13.76;100.00
4858;BME280;58975;51.978;8.472;2023-07-31T02:58:47;99867.00;;;13.74;100.00
4858;BME280;58975;51.978;8.472;2023-07-31T03:03:44;99856.31;;;13.74;100.00
4858;BME280;58975;51.978;8.472;2023-07-31T03:08:40;99866.69;;;13.78;100.00
4858;BME280;58975;51.978;8.472;2023-07-31T03:13:37;99869.41;;;13.86;100.00
4858;BME280;58975;51.978;8.472;2023-07-31T03:18:33;99879.53;;;14.00;100.00
4858;BME280;58975;51.978;8.472;2023-07-31T03:23:29;99904.59;;;14.16;100.00
4858;BME280;58975;51.978;8.472;2023-07-31T03:28:26;99917.63;;;14.37;100.00
4858;BME280;58975;51.978;8.472;2023-07-31T03:33:23;99921.72;;;14.49;100.00
4858;BME280;58975;51.978;8.472;2023-07-31T03:38:20;99921.09;;;14.63;100.00
4858;BME280;58975;51.978;8.472;2023-07-31T03:43:16;99926.16;;;14.75;100.00
4858;BME280;58975;51.978;8.472;2023-07-31T03:48:14;99929.53;;;14.77;100.00
4858;BME280;58975;51.978;8.472;2023-07-31T03:53:10;99922.16;;;14.79;100.00
4858;BME280;58975;51.978;8.472;2023-07-31T03:58:07;99918.16;;;14.83;100.00
4858;BME280;58975;51.978;8.472;2023-07-31T04:03:03;99912.13;;;14.81;100.00
4858;BME280;58975;51.978;8.472;2023-07-31T04:08:00;99916.81;;;14.79;100.00
4858;BME280;58975;51.978;8.472;2023-07-31T04:12:56;99902.75;;;14.77;100.00
4858;BME280;58975;51.978;8.472;2023-07-31T04:17:52;99896.38;;;14.78;100.00
4858;BME280;58975;51.978;8.472;2023-07-31T04:22:49;99883.13;;;14.76;100.00
4858;BME280;58975;51.978;8.472;2023-07-31T04:27:46;99884.13;;;14.75;100.00
4858;BME280;58975;51.978;8.472;2023-07-31T04:32:42;99871.94;;;14.81;100.00
4858;BME280;58975;51.978;8.472;2023-07-31T04:37:39;99878.63;;;14.77;100.00
4858;BME280;58975;51.978;8.472;2023-07-31T04:42:35;99869.88;;;14.75;100.00
4858;BME280;58975;51.978;8.472;2023-07-31T04:47:31;99854.13;;;14.72;100.00
4858;BME280;58975;51.978;8.472;2023-07-31T04:52:28;99861.00;;;14.74;100.00
4858;BME280;58975;51.978;8.472;2023-07-31T04:57:24;99844.63;;;14.77;100.00
4858;BME280;58975;51.978;8.472;2023-07-31T05:02:21;99839.25;;;14.77;100.00
4858;BME280;58975;51.978;8.472;2023-07-31T05:07:18;99822.97;;;14.79;100.00
4858;BME280;58975;51.978;8.472;2023-07-31T05:12:14;99809.28;;;14.82;100.00
4858;BME280;58975;51.978;8.472;2023-07-31T05:17:11;99795.88;;;14.82;100.00
4858;BME280;58975;51.978;8.472;2023-07-31T05:22:07;99773.09;;;14.86;100.00
4858;BME280;58975;51.978;8.472;2023-07-31T05:27:04;99765.03;;;14.94;100.00
4858;BME280;58975;51.978;8.472;2023-07-31T05:32:01;99758.69;;;14.95;100.00
4858;BME280;58975;51.978;8.472;2023-07-31T05:36:57;99745.28;;;14.95;100.00
4858;BME280;58975;51.978;8.472;2023-07-31T05:41:54;99742.25;;;14.98;100.00
4858;BME280;58975;51.978;8.472;2023-07-31T05:46:50;99728.19;;;15.04;100.00
4858;BME280;58975;51.978;8.472;2023-07-31T05:51:46;99716.78;;;14.94;100.00
4858;BME280;58975;51.978;8.472;2023-07-31T05:56:43;99729.69;;;14.98;100.00
4858;BME280;58975;51.978;8.472;2023-07-31T06:01:39;99728.19;;;14.96;100.00
4858;BME280;58975;51.978;8.472;2023-07-31T06:06:36;99718.97;;;14.98;100.00
4858;BME280;58975;51.978;8.472;2023-07-31T06:11:33;99721.97;;;15.11;100.00
4858;BME280;58975;51.978;8.472;2023-07-31T06:16:29;99709.06;;;15.15;100.00
4858;BME280;58975;51.978;8.472;2023-07-31T06:21:26;99712.75;;;15.22;100.00
4858;BME280;58975;51.978;8.472;2023-07-31T06:26:22;99693.31;;;15.20;100.00
4858;BME280;58975;51.978;8.472;2023-07-31T06:31:19;99684.75;;;15.33;100.00
4858;BME280;58975;51.978;8.472;2023-07-31T06:36:19;99667.47;;;15.35;100.00
4858;BME280;58975;51.978;8.472;2023-07-31T06:41:15;99671.50;;;15.31;100.00
4858;BME280;58975;51.978;8.472;2023-07-31T06:46:12;99649.16;;;15.39;100.00
4858;BME280;58975;51.978;8.472;2023-07-31T06:51:08;99651.84;;;15.39;100.00
4858;BME280;58975;51.978;8.472;2023-07-31T06:56:05;99657.03;;;15.48;100.00
4858;BME280;58975;51.978;8.472;2023-07-31T07:01:01;99657.72;;;15.42;100.00
4858;BME280;58975;51.978;8.472;2023-07-31T07:05:58;99657.72;;;15.42;100.00
4858;BME280;58975;51.978;8.472;2023-07-31T07:10:54;99657.03;;;15.48;100.00
4858;BME280;58975;51.978;8.472;2023-07-31T07:15:51;99666.09;;;15.47;100.00
4858;BME280;58975;51.978;8.472;2023-07-31T07:20:52;99681.50;;;15.45;100.00
4858;BME280;58975;51.978;8.472;2023-07-31T07:25:48;99692.75;;;15.41;100.00
4858;BME280;58975;51.978;8.472;2023-07-31T07:30:50;99697.44;;;15.47;100.00
4858;BME280;58975;51.978;8.472;2023-07-31T07:35:47;99714.72;;;15.44;100.00
4858;BME280;58975;51.978;8.472;2023-07-31T07:40:44;99723.09;;;15.41;100.00
4858;BME280;58975;51.978;8.472;2023-07-31T07:45:41;99704.81;;;15.45;100.00
4858;BME280;58975;51.978;8.472;2023-07-31T07:50:38;99716.75;;;15.50;100.00
4858;BME280;58975;51.978;8.472;2023-07-31T07:55:35;99718.22;;;15.45;100.00
4858;BME280;58975;51.978;8.472;2023-07-31T08:00:32;99720.78;;;15.54;100.00
4858;BME280;58975;51.978;8.472;2023-07-31T08:05:28;99726.63;;;15.58;100.00
4858;BME280;58975;51.978;8.472;2023-07-31T08:10:28;99729.44;;;15.73;100.00
4858;BME280;58975;51.978;8.472;2023-07-31T08:15:25;99733.06;;;15.88;100.00
4858;BME280;58975;51.978;8.472;2023-07-31T08:20:21;99720.81;;;15.93;100.00
4858;BME280;58975;51.978;8.472;2023-07-31T08:25:18;99703.78;;;16.09;100.00
4858;BME280;58975;51.978;8.472;2023-07-31T08:30:14;99711.00;;;16.39;100.00
4858;BME280;58975;51.978;8.472;2023-07-31T08:35:11;99680.78;;;16.37;100.00
4858;BME280;58975;51.978;8.472;2023-07-31T08:40:08;99684.00;;;16.33;100.00
4858;BME280;58975;51.978;8.472;2023-07-31T08:45:05;99672.72;;;16.37;100.00
4858;BME280;58975;51.978;8.472;2023-07-31T08:50:02;99659.75;;;16.18;100.00
4858;BME280;58975;51.978;8.472;2023-07-31T08:54:59;99656.34;;;16.24;100.00
4858;BME280;58975;51.978;8.472;2023-07-31T08:59:56;99656.72;;;16.21;100.00
4858;BME280;58975;51.978;8.472;2023-07-31T09:04:54;99670.19;;;16.13;100.00
4858;BME280;58975;51.978;8.472;2023-07-31T09:09:50;99671.44;;;16.02;100.00
4858;BME280;58975;51.978;8.472;2023-07-31T09:14:47;99669.81;;;16.16;100.00
4858;BME280;58975;51.978;8.472;2023-07-31T09:19:43;99673.78;;;16.28;100.00
4858;BME280;58975;51.978;8.472;2023-07-31T09:24:40;99670.63;;;16.25;100.00
4858;BME280;58975;51.978;8.472;2023-07-31T09:29:36;99658.50;;;16.29;100.00
4858;BME280;58975;51.978;8.472;2023-07-31T09:34:39;99648.19;;;16.40;100.00
4858;BME280;58975;51.978;8.472;2023-07-31T09:39:46;99635.84;;;16.23;100.00
4858;BME280;58975;51.978;8.472;2023-07-31T09:44:43;99614.88;;;16.27;100.00
4858;BME280;58975;51.978;8.472;2023-07-31T09:49:45;99606.63;;;16.28;100.00
4858;BME280;58975;51.978;8.472;2023-07-31T09:54:42;99610.97;;;16.29;100.00
4858;BME280;58975;51.978;8.472;2023-07-31T09:59:38;99608.78;;;16.33;100.00
4858;BME280;58975;51.978;8.472;2023-07-31T10:04:35;99608.72;;;16.18;100.00
4858;BME280;58975;51.978;8.472;2023-07-31T10:09:33;99615.22;;;16.24;100.00
4858;BME280;58975;51.978;8.472;2023-07-31T10:14:31;99620.59;;;16.24;100.00
4858;BME280;58975;51.978;8.472;2023-07-31T10:19:29;99624.34;;;16.15;100.00
4858;BME280;58975;51.978;8.472;2023-07-31T10:24:26;99635.28;;;16.36;100.00
4858;BME280;58975;51.978;8.472;2023-07-31T10:29:24;99641.91;;;16.25;100.00
4858;BME280;58975;51.978;8.472;2023-07-31T10:34:21;99656.13;;;16.34;100.00
4858;BME280;58975;51.978;8.472;2023-07-31T10:39:34;99646.28;;;16.26;100.00
4858;BME280;58975;51.978;8.472;2023-07-31T10:44:33;99636.38;;;16.27;100.00
4858;BME280;58975;51.978;8.472;2023-07-31T10:49:30;99632.75;;;16.12;100.00
4858;BME280;58975;51.978;8.472;2023-07-31T10:54:28;99618.72;;;16.24;100.00
4858;BME280;58975;51.978;8.472;2023-07-31T10:59:26;99609.97;;;16.30;100.00
4858;BME280;58975;51.978;8.472;2023-07-31T11:04:25;99597.53;;;16.52;100.00
4858;BME280;58975;51.978;8.472;2023-07-31T11:09:25;99600.75;;;16.47;100.00
4858;BME280;58975;51.978;8.472;2023-07-31T11:14:23;99593.84;;;16.30;100.00
4858;BME280;58975;51.978;8.472;2023-07-31T11:19:24;99595.50;;;16.31;100.00
4858;BME280;58975;51.978;8.472;2023-07-31T11:24:21;99592.00;;;16.31;100.00
4858;BME280;58975;51.978;8.472;2023-07-31T11:29:18;99591.59;;;16.42;100.00
4858;BME280;58975;51.978;8.472;2023-07-31T11:34:15;99577.34;;;16.56;100.00
4858;BME280;58975;51.978;8.472;2023-07-31T11:39:13;99575.88;;;16.53;100.00
4858;BME280;58975;51.978;8.472;2023-07-31T11:44:09;99577.03;;;16.51;100.00
4858;BME280;58975;51.978;8.472;2023-07-31T11:49:23;99566.13;;;16.52;100.00
4858;BME280;58975;51.978;8.472;2023-07-31T11:54:19;99569.16;;;16.72;100.00
4858;BME280;58975;51.978;8.472;2023-07-31T11:59:16;99561.94;;;16.73;100.00
4858;BME280;58975;51.978;8.472;2023-07-31T12:04:13;99563.03;;;16.64;100.00
4858;BME280;58975;51.978;8.472;2023-07-31T12:09:10;99550.09;;;16.82;100.00
4858;BME280;58975;51.978;8.472;2023-07-31T12:14:06;99545.13;;;16.71;100.00
4858;BME280;58975;51.978;8.472;2023-07-31T12:19:03;99553.88;;;16.73;100.00
4858;BME280;58975;51.978;8.472;2023-07-31T12:23:59;99540.06;;;16.76;100.00
4858;BME280;58975;51.978;8.472;2023-07-31T12:28:56;99553.78;;;16.81;100.00
4858;BME280;58975;51.978;8.472;2023-07-31T12:33:55;99549.88;;;16.69;100.00
4858;BME280;58975;51.978;8.472;2023-07-31T12:38:52;99553.56;;;16.68;100.00
4858;BME280;58975;51.978;8.472;2023-07-31T12:43:49;99561.56;;;16.76;100.00
4858;BME280;58975;51.978;8.472;2023-07-31T12:48:45;99572.47;;;16.60;100.00
4858;BME280;58975;51.978;8.472;2023-07-31T12:53:42;99589.78;;;16.34;100.00
4858;BME280;58975;51.978;8.472;2023-07-31T12:58:38;99586.06;;;16.35;100.00
4858;BME280;58975;51.978;8.472;2023-07-31T13:03:35;99589.72;;;16.65;100.00
4858;BME280;58975;51.978;8.472;2023-07-31T13:08:32;99567.69;;;16.84;100.00
4858;BME280;58975;51.978;8.472;2023-07-31T13:13:28;99543.78;;;17.04;100.00
4858;BME280;58975;51.978;8.472;2023-07-31T13:18:28;99516.44;;;17.51;100.00
4858;BME280;58975;51.978;8.472;2023-07-31T13:23:25;99476.72;;;18.10;100.00
4858;BME280;58975;51.978;8.472;2023-07-31T13:28:21;99441.84;;;18.58;100.00
4858;BME280;58975;51.978;8.472;2023-07-31T13:33:18;99413.41;;;18.96;100.00
4858;BME280;58975;51.978;8.472;2023-07-31T13:38:32;99393.88;;;18.94;100.00
4858;BME280;58975;51.978;8.472;2023-07-31T13:43:29;99396.88;;;18.65;100.00
4858;BME280;58975;51.978;8.472;2023-07-31T13:48:25;99383.69;;;18.83;100.00
4858;BME280;58975;51.978;8.472;2023-07-31T13:53:22;99385.72;;;19.42;100.00
4858;BME280;58975;51.978;8.472;2023-07-31T13:58:18;99375.25;;;18.99;100.00
4858;BME280;58975;51.978;8.472;2023-07-31T14:03:15;99372.88;;;18.42;100.00
4858;BME280;58975;51.978;8.472;2023-07-31T14:08:11;99370.91;;;18.29;100.00
4858;BME280;58975;51.978;8.472;2023-07-31T14:13:08;99357.41;;;18.23;100.00
4858;BME280;58975;51.978;8.472;2023-07-31T14:18:04;99357.66;;;18.00;100.00
4858;BME280;58975;51.978;8.472;2023-07-31T14:23:04;99377.91;;;17.96;100.00
4858;BME280;58975;51.978;8.472;2023-07-31T14:28:00;99390.25;;;17.84;100.00
4858;BME280;58975;51.978;8.472;2023-07-31T14:32:57;99395.63;;;17.84;100.00
4858;BME280;58975;51.978;8.472;2023-07-31T14:37:53;99391.03;;;17.78;100.00
4858;BME280;58975;51.978;8.472;2023-07-31T14:42:50;99395.53;;;17.71;100.00
4858;BME280;58975;51.978;8.472;2023-07-31T14:47:46;99396.16;;;17.73;100.00
4858;BME280;58975;51.978;8.472;2023-07-31T14:52:43;99388.47;;;17.70;100.00
4858;BME280;58975;51.978;8.472;2023-07-31T14:57:39;99380.59;;;17.68;100.00
4858;BME280;58975;51.978;8.472;2023-07-31T15:02:37;99388.47;;;17.70;100.00
4858;BME280;58975;51.978;8.472;2023-07-31T15:07:34;99378.19;;;17.80;100.00
4858;BME280;58975;51.978;8.472;2023-07-31T15:12:30;99351.38;;;17.93;100.00
4858;BME280;58975;51.978;8.472;2023-07-31T15:17:27;99353.38;;;18.12;100.00
4858;BME280;58975;51.978;8.472;2023-07-31T15:22:25;99339.91;;;18.12;100.00
4858;BME280;58975;51.978;8.472;2023-07-31T15:27:22;99354.28;;;17.91;100.00
4858;BME280;58975;51.978;8.472;2023-07-31T15:32:18;99342.63;;;17.84;100.00
4858;BME280;58975;51.978;8.472;2023-07-31T15:37:15;99348.06;;;17.91;100.00
4858;BME280;58975;51.978;8.472;2023-07-31T15:42:13;99347.38;;;17.82;100.00
4858;BME280;58975;51.978;8.472;2023-07-31T15:47:10;99345.16;;;17.92;100.00
4858;BME280;58975;51.978;8.472;2023-07-31T15:52:06;99345.16;;;17.92;100.00
4858;BME280;58975;51.978;8.472;2023-07-31T15:57:03;99323.63;;;17.92;100.00
4858;BME280;58975;51.978;8.472;2023-07-31T16:02:00;99325.47;;;17.92;100.00
4858;BME280;58975;51.978;8.472;2023-07-31T16:06:57;99315.50;;;17.86;100.00
4858;BME280;58975;51.978;8.472;2023-07-31T16:11:53;99318.88;;;17.94;100.00
4858;BME280;58975;51.978;8.472;2023-07-31T16:16:50;99311.13;;;17.85;100.00
4858;BME280;58975;51.978;8.472;2023-07-31T16:21:49;99309.38;;;17.99;100.00
4858;BME280;58975;51.978;8.472;2023-07-31T16:26:45;99296.09;;;17.97;100.00
4858;BME280;58975;51.978;8.472;2023-07-31T16:31:42;99290.69;;;17.97;100.00
4858;BME280;58975;51.978;8.472;2023-07-31T16:36:53;99280.13;;;17.95;100.00
4858;BME280;58975;51.978;8.472;2023-07-31T16:41:52;99266.88;;;18.01;100.00
4858;BME280;58975;51.978;8.472;2023-07-31T16:46:48;99250.72;;;18.01;100.00
4858;BME280;58975;51.978;8.472;2023-07-31T16:51:45;99253.41;;;17.94;100.00
4858;BME280;58975;51.978;8.472;2023-07-31T16:56:41;99246.78;;;17.96;100.00
4858;BME280;58975;51.978;8.472;2023-07-31T17:01:54;99252.72;;;17.85;100.00
4858;BME280;58975;51.978;8.472;2023-07-31T17:06:55;99237.88;;;17.68;100.00
4858;BME280;58975;51.978;8.472;2023-07-31T17:11:51;99238.88;;;17.61;100.00
4858;BME280;58975;51.978;8.472;2023-07-31T17:16:48;99231.22;;;17.36;100.00
4858;BME280;58975;51.978;8.472;2023-07-31T17:21:44;99244.13;;;17.20;100.00
4858;BME280;58975;51.978;8.472;2023-07-31T17:26:40;99249.06;;;17.16;100.00
4858;BME280;58975;51.978;8.472;2023-07-31T17:31:37;99246.81;;;17.20;100.00
4858;BME280;58975;51.978;8.472;2023-07-31T17:36:35;99258.78;;;17.17;100.00
4858;BME280;58975;51.978;8.472;2023-07-31T17:41:33;99254.34;;;17.10;100.00
4858;BME280;58975;51.978;8.472;2023-07-31T17:46:30;99257.53;;;17.13;100.00
4858;BME280;58975;51.978;8.472;2023-07-31T17:51:26;99261.84;;;17.14;100.00
4858;BME280;58975;51.978;8.472;2023-07-31T17:56:23;99246.75;;;17.13;100.00
4858;BME280;58975;51.978;8.472;2023-07-31T18:01:19;99243.59;;;17.10;100.00
4858;BME280;58975;51.978;8.472;2023-07-31T18:06:16;99251.63;;;17.03;100.00
4858;BME280;58975;51.978;8.472;2023-07-31T18:11:12;99245.78;;;16.99;100.00
4858;BME280;58975;51.978;8.472;2023-07-31T18:16:10;99253.72;;;17.08;100.00
4858;BME280;58975;51.978;8.472;2023-07-31T18:21:06;99247.00;;;16.97;100.00
4858;BME280;58975;51.978;8.472;2023-07-31T18:26:02;99260.19;;;16.92;100.00
4858;BME280;58975;51.978;8.472;2023-07-31T18:31:00;99276.78;;;16.95;100.00
4858;BME280;58975;51.978;8.472;2023-07-31T18:35:57;99265.56;;;16.92;100.00
4858;BME280;58975;51.978;8.472;2023-07-31T18:40:54;99258.47;;;16.84;100.00
4858;BME280;58975;51.978;8.472;2023-07-31T18:45:50;99240.66;;;16.83;100.00
4858;BME280;58975;51.978;8.472;2023-07-31T18:50:47;99239.31;;;16.73;100.00
4858;BME280;58975;51.978;8.472;2023-07-31T18:55:44;99234.06;;;16.65;100.00
4858;BME280;58975;51.978;8.472;2023-07-31T19:00:40;99235.97;;;16.71;100.00
4858;BME280;58975;51.978;8.472;2023-07-31T19:05:38;99220.56;;;16.58;100.00
4858;BME280;58975;51.978;8.472;2023-07-31T19:10:35;99215.50;;;16.55;100.00
4858;BME280;58975;51.978;8.472;2023-07-31T19:15:33;99216.34;;;16.55;100.00
4858;BME280;58975;51.978;8.472;2023-07-31T19:20:30;99213.03;;;16.53;100.00
4858;BME280;58975;51.978;8.472;2023-07-31T19:25:27;99198.53;;;16.54;100.00
4858;BME280;58975;51.978;8.472;2023-07-31T19:30:24;99195.63;;;16.49;100.00
4858;BME280;58975;51.978;8.472;2023-07-31T19:35:22;99195.34;;;16.44;100.00
4858;BME280;58975;51.978;8.472;2023-07-31T19:40:21;99197.75;;;16.39;100.00
4858;BME280;58975;51.978;8.472;2023-07-31T19:45:18;99188.81;;;16.32;100.00
4858;BME280;58975;51.978;8.472;2023-07-31T19:50:14;99190.47;;;16.33;100.00
4858;BME280;58975;51.978;8.472;2023-07-31T19:55:11;99180.47;;;16.27;100.00
4858;BME280;58975;51.978;8.472;2023-07-31T20:00:07;99179.84;;;16.25;100.00
4858;BME280;58975;51.978;8.472;2023-07-31T20:05:04;99174.56;;;16.17;100.00
4858;BME280;58975;51.978;8.472;2023-07-31T20:10:01;99173.75;;;16.17;100.00
4858;BME280;58975;51.978;8.472;2023-07-31T20:15:00;99173.94;;;16.15;100.00
4858;BME280;58975;51.978;8.472;2023-07-31T20:19:56;99161.16;;;16.17;100.00
4858;BME280;58975;51.978;8.472;2023-07-31T20:24:53;99131.59;;;16.17;100.00
4858;BME280;58975;51.978;8.472;2023-07-31T20:29:49;99125.72;;;16.07;100.00
4858;BME280;58975;51.978;8.472;2023-07-31T20:34:46;99110.06;;;16.11;100.00
4858;BME280;58975;51.978;8.472;2023-07-31T20:39:42;99123.38;;;16.04;100.00
4858;BME280;58975;51.978;8.472;2023-07-31T20:44:39;99114.03;;;16.00;100.00
4858;BME280;58975;51.978;8.472;2023-07-31T20:49:35;99111.34;;;16.00;100.00
4858;BME280;58975;51.978;8.472;2023-07-31T20:54:32;99107.03;;;15.99;100.00
4858;BME280;58975;51.978;8.472;2023-07-31T20:59:28;99107.03;;;15.99;100.00
4858;BME280;58975;51.978;8.472;2023-07-31T21:04:24;99111.34;;;16.00;100.00
4858;BME280;58975;51.978;8.472;2023-07-31T21:09:21;99104.47;;;15.91;100.00
4858;BME280;58975;51.978;8.472;2023-07-31T21:14:17;99106.22;;;15.84;100.00
4858;BME280;58975;51.978;8.472;2023-07-31T21:19:14;99111.84;;;15.89;100.00
4858;BME280;58975;51.978;8.472;2023-07-31T21:24:10;99106.88;;;15.86;100.00
4858;BME280;58975;51.978;8.472;2023-07-31T21:29:07;99114.00;;;15.79;100.00
4858;BME280;58975;51.978;8.472;2023-07-31T21:34:03;99119.66;;;15.84;100.00
4858;BME280;58975;51.978;8.472;2023-07-31T21:39:00;99127.88;;;15.82;100.00
4858;BME280;58975;51.978;8.472;2023-07-31T21:43:57;99138.63;;;15.82;100.00
4858;BME280;58975;51.978;8.472;2023-07-31T21:48:53;99137.78;;;15.82;100.00
4858;BME280;58975;51.978;8.472;2023-07-31T21:53:50;99143.16;;;15.82;100.00
4858;BME280;58975;51.978;8.472;2023-07-31T21:58:46;99147.13;;;15.86;100.00
4858;BME280;58975;51.978;8.472;2023-07-31T22:03:42;99151.50;;;15.87;100.00
4858;BME280;58975;51.978;8.472;2023-07-31T22:08:39;99150.81;;;15.85;100.00
4858;BME280;58975;51.978;8.472;2023-07-31T22:13:35;99163.88;;;15.88;100.00
4858;BME280;58975;51.978;8.472;2023-07-31T22:18:32;99156.47;;;15.90;100.00
4858;BME280;58975;51.978;8.472;2023-07-31T22:23:28;99163.88;;;15.88;100.00
4858;BME280;58975;51.978;8.472;2023-07-31T22:28:25;99163.97;;;15.94;100.00
4858;BME280;58975;51.978;8.472;2023-07-31T22:33:21;99160.19;;;15.89;100.00
4858;BME280;58975;51.978;8.472;2023-07-31T22:38:19;99145.47;;;15.85;100.00
4858;BME280;58975;51.978;8.472;2023-07-31T22:43:16;99145.91;;;15.88;100.00
4858;BME280;58975;51.978;8.472;2023-07-31T22:48:12;99133.59;;;15.94;100.00
4858;BME280;58975;51.978;8.472;2023-07-31T22:53:09;99135.06;;;15.96;100.00
4858;BME280;58975;51.978;8.472;2023-07-31T22:58:06;99115.25;;;15.97;100.00
4858;BME280;58975;51.978;8.472;2023-07-31T23:03:03;99112.56;;;15.97;100.00
4858;BME280;58975;51.978;8.472;2023-07-31T23:07:59;99103.56;;;16.05;100.00
4858;BME280;58975;51.978;8.472;2023-07-31T23:12:56;99115.41;;;16.11;100.00
4858;BME280;58975;51.978;8.472;2023-07-31T23:17:52;99089.75;;;16.08;100.00
4858;BME280;58975;51.978;8.472;2023-07-31T23:22:49;99068.66;;;16.05;100.00
4858;BME280;58975;51.978;8.472;2023-07-31T23:27:45;99054.00;;;16.07;100.00
4858;BME280;58975;51.978;8.472;2023-07-31T23:32:41;99048.78;;;15.99;100.00
4858;BME280;58975;51.978;8.472;2023-07-31T23:37:38;99045.06;;;16.00;100.00
4858;BME280;58975;51.978;8.472;2023-07-31T23:42:34;99025.19;;;15.95;100.00
4858;BME280;58975;51.978;8.472;2023-07-31T23:47:31;99016.38;;;15.80;100.00
4858;BME280;58975;51.978;8.472;2023-07-31T23:52:27;99000.09;;;15.67;100.00
4858;BME280;58975;51.978;8.472;2023-07-31T23:57:24;98983.22;;;15.51;100.00
